Weather at Tipton Airport

Public forecast

Using degrees Fahrenheit for public forecast. Weather courtesy of forecast.io.

Current aviation weather report (METAR) for Tipton Airport

Retrieved 2020/09/23 13:15 UTC (0 seconds ago):

KFME 231315Z AUTO 29004KT 10SM CLR 13/12 A3004 RMK AO1

Closest aviation forecast (TAF) to Tipton Airport

Closest forecast is Baltimore/Washington International Thurgood Marshall Airport, 6.9 nm (12.7 km) NE. Retrieved 2020/09/23 12:22 UTC (43 minutes ago):

TAF KBWI 231120Z 2312/2418 29006KT P6SM SCT250 FM240000 26006KT P6SM SCT250 FM241200 VRB03KT P6SM SCT040 BKN250